KEWB

New Bedford Regional Airport

New Bedford, Massachusetts, USA
METAR KEWB 232153Z 14012KT 10SM -RA OVC019 03/01 A3040 RMK AO2 RAE09B45 SLP293 P0000 T00330006
Observed Flight Rules
Feb-23 @ 21:53 UTC (44 minutes ago) Marginal Visual Flight Rules
Wind Visibility Clouds Conditions
140° at 12 knots 10 miles
  • Overcast at 1,900' AGL
  • Light Rain
Temperatures Readings Precipitation
Current 3°C / 37°F
Dewpoint 1°C / 34°F
Humidity 87%
Altimeter 30.4" Hg
Pressure 1029.3 hPa
Elevation 23
Current Rain 0.005
METAR KEWB 232153Z 14012KT 10SM -RA OVC019 03/01 A3040 RMK AO2 RAE09B45 SLP293 P0000 T00330006
Observed Flight Rules
Feb-23 @ 21:53 UTC
(44 minutes ago)
MVFR
Wind Visibility
140° at 12 knots 10 miles
Clouds
  • Overcast at 1,900' AGL
Conditions
  • Light Rain
Temperature Dewpoint
3°C / 37°F 1°C / 34°F
Humidity Altimeter Pressure
87% 30.4" Hg 1029.3 hPa
Current Rain
0.005